sensor_id;sensor_type;location;lat;lon;timestamp;temperature;humidity
23149;DHT22;11743;51.228;22.498;2023-08-17T00:00:07;21.60;1.00
23149;DHT22;11743;51.228;22.498;2023-08-17T00:00:35;21.60;1.00
23149;DHT22;11743;51.228;22.498;2023-08-17T00:00:57;21.60;1.00
23149;DHT22;11743;51.228;22.498;2023-08-17T00:01:19;21.60;1.00
23149;DHT22;11743;51.228;22.498;2023-08-17T00:01:41;21.60;1.00
23149;DHT22;11743;51.228;22.498;2023-08-17T00:02:03;21.60;1.00
23149;DHT22;11743;51.228;22.498;2023-08-17T00:02:25;21.60;1.00
23149;DHT22;11743;51.228;22.498;2023-08-17T00:02:47;21.60;1.00
23149;DHT22;11743;51.228;22.498;2023-08-17T00:03:08;21.60;1.00
23149;DHT22;11743;51.228;22.498;2023-08-17T00:03:31;21.60;1.00
23149;DHT22;11743;51.228;22.498;2023-08-17T00:03:53;21.60;1.00
23149;DHT22;11743;51.228;22.498;2023-08-17T00:04:15;21.60;1.00
23149;DHT22;11743;51.228;22.498;2023-08-17T00:04:36;21.60;1.00
23149;DHT22;11743;51.228;22.498;2023-08-17T00:04:58;21.60;1.00
23149;DHT22;11743;51.228;22.498;2023-08-17T00:05:20;21.60;1.00
23149;DHT22;11743;51.228;22.498;2023-08-17T00:05:42;21.60;1.00
23149;DHT22;11743;51.228;22.498;2023-08-17T00:06:04;21.60;1.00
23149;DHT22;11743;51.228;22.498;2023-08-17T00:06:25;21.60;1.00
23149;DHT22;11743;51.228;22.498;2023-08-17T00:06:47;21.60;1.00
23149;DHT22;11743;51.228;22.498;2023-08-17T00:07:09;21.50;1.00
23149;DHT22;11743;51.228;22.498;2023-08-17T00:07:31;21.50;1.00
23149;DHT22;11743;51.228;22.498;2023-08-17T00:07:53;21.50;1.00
23149;DHT22;11743;51.228;22.498;2023-08-17T00:08:15;21.50;1.00
23149;DHT22;11743;51.228;22.498;2023-08-17T00:08:38;21.50;1.00
23149;DHT22;11743;51.228;22.498;2023-08-17T00:09:00;21.50;1.00
23149;DHT22;11743;51.228;22.498;2023-08-17T00:09:21;21.50;1.00
23149;DHT22;11743;51.228;22.498;2023-08-17T00:09:43;21.50;1.00
23149;DHT22;11743;51.228;22.498;2023-08-17T00:10:05;21.50;1.00
23149;DHT22;11743;51.228;22.498;2023-08-17T00:10:27;21.50;1.00
23149;DHT22;11743;51.228;22.498;2023-08-17T00:10:49;21.50;1.00
23149;DHT22;11743;51.228;22.498;2023-08-17T00:11:11;21.50;1.00
23149;DHT22;11743;51.228;22.498;2023-08-17T00:11:33;21.50;1.00
23149;DHT22;11743;51.228;22.498;2023-08-17T00:11:55;21.50;1.00
23149;DHT22;11743;51.228;22.498;2023-08-17T00:12:17;21.50;1.00
23149;DHT22;11743;51.228;22.498;2023-08-17T00:12:39;21.50;1.00
23149;DHT22;11743;51.228;22.498;2023-08-17T00:13:00;21.50;1.00
23149;DHT22;11743;51.228;22.498;2023-08-17T00:13:23;21.50;1.00
23149;DHT22;11743;51.228;22.498;2023-08-17T00:13:45;21.50;1.00
23149;DHT22;11743;51.228;22.498;2023-08-17T00:14:07;21.50;1.00
23149;DHT22;11743;51.228;22.498;2023-08-17T00:14:29;21.50;1.00
23149;DHT22;11743;51.228;22.498;2023-08-17T00:14:52;21.50;1.00
23149;DHT22;11743;51.228;22.498;2023-08-17T00:15:14;21.50;1.00
23149;DHT22;11743;51.228;22.498;2023-08-17T00:15:36;21.50;1.00
23149;DHT22;11743;51.228;22.498;2023-08-17T00:15:58;21.50;1.00
23149;DHT22;11743;51.228;22.498;2023-08-17T00:16:20;21.50;1.00
23149;DHT22;11743;51.228;22.498;2023-08-17T00:16:42;21.50;1.00
23149;DHT22;11743;51.228;22.498;2023-08-17T00:17:03;21.50;1.00
23149;DHT22;11743;51.228;22.498;2023-08-17T00:17:25;21.50;1.00
23149;DHT22;11743;51.228;22.498;2023-08-17T00:17:48;21.50;1.00
23149;DHT22;11743;51.228;22.498;2023-08-17T00:18:09;21.50;1.00
23149;DHT22;11743;51.228;22.498;2023-08-17T00:18:31;21.40;1.00
23149;DHT22;11743;51.228;22.498;2023-08-17T00:18:53;21.50;1.00
23149;DHT22;11743;51.228;22.498;2023-08-17T00:19:15;21.50;1.00
23149;DHT22;11743;51.228;22.498;2023-08-17T00:19:37;21.50;1.00
23149;DHT22;11743;51.228;22.498;2023-08-17T00:19:58;21.50;1.00
23149;DHT22;11743;51.228;22.498;2023-08-17T00:20:20;21.50;1.00
23149;DHT22;11743;51.228;22.498;2023-08-17T00:20:42;21.50;1.00
23149;DHT22;11743;51.228;22.498;2023-08-17T00:21:04;21.50;1.00
23149;DHT22;11743;51.228;22.498;2023-08-17T00:21:26;21.50;1.00
23149;DHT22;11743;51.228;22.498;2023-08-17T00:21:48;21.50;1.00
23149;DHT22;11743;51.228;22.498;2023-08-17T00:22:10;21.50;1.00
23149;DHT22;11743;51.228;22.498;2023-08-17T00:22:32;21.40;1.00
23149;DHT22;11743;51.228;22.498;2023-08-17T00:22:53;21.40;1.00
23149;DHT22;11743;51.228;22.498;2023-08-17T00:23:15;21.40;1.00
23149;DHT22;11743;51.228;22.498;2023-08-17T00:23:37;21.40;1.00
23149;DHT22;11743;51.228;22.498;2023-08-17T00:23:59;21.40;1.00
23149;DHT22;11743;51.228;22.498;2023-08-17T00:24:21;21.40;1.00
23149;DHT22;11743;51.228;22.498;2023-08-17T00:24:43;21.40;1.00
23149;DHT22;11743;51.228;22.498;2023-08-17T00:25:06;21.40;1.00
23149;DHT22;11743;51.228;22.498;2023-08-17T00:25:29;21.40;1.00
23149;DHT22;11743;51.228;22.498;2023-08-17T00:25:51;21.40;1.00
23149;DHT22;11743;51.228;22.498;2023-08-17T00:26:13;21.40;1.00
23149;DHT22;11743;51.228;22.498;2023-08-17T00:26:35;21.40;1.00
23149;DHT22;11743;51.228;22.498;2023-08-17T00:26:57;21.40;1.00
23149;DHT22;11743;51.228;22.498;2023-08-17T00:27:19;21.40;1.00
23149;DHT22;11743;51.228;22.498;2023-08-17T00:27:41;21.40;1.00
23149;DHT22;11743;51.228;22.498;2023-08-17T00:28:03;21.40;1.00
23149;DHT22;11743;51.228;22.498;2023-08-17T00:28:25;21.40;1.00
23149;DHT22;11743;51.228;22.498;2023-08-17T00:28:46;21.40;1.00
23149;DHT22;11743;51.228;22.498;2023-08-17T00:29:08;21.40;1.00
23149;DHT22;11743;51.228;22.498;2023-08-17T00:29:30;21.40;1.00
23149;DHT22;11743;51.228;22.498;2023-08-17T00:29:52;21.40;1.00
23149;DHT22;11743;51.228;22.498;2023-08-17T00:30:14;21.40;1.00
23149;DHT22;11743;51.228;22.498;2023-08-17T00:30:35;21.40;1.00
23149;DHT22;11743;51.228;22.498;2023-08-17T00:31:00;21.40;1.00
23149;DHT22;11743;51.228;22.498;2023-08-17T00:31:22;21.40;1.00
23149;DHT22;11743;51.228;22.498;2023-08-17T00:31:44;21.40;1.00
23149;DHT22;11743;51.228;22.498;2023-08-17T00:32:06;21.40;1.00
23149;DHT22;11743;51.228;22.498;2023-08-17T00:32:28;21.40;1.00
23149;DHT22;11743;51.228;22.498;2023-08-17T00:32:49;21.40;1.00
23149;DHT22;11743;51.228;22.498;2023-08-17T00:33:11;21.40;1.00
23149;DHT22;11743;51.228;22.498;2023-08-17T00:33:33;21.40;1.00
23149;DHT22;11743;51.228;22.498;2023-08-17T00:33:55;21.40;1.00
23149;DHT22;11743;51.228;22.498;2023-08-17T00:34:17;21.40;1.00
23149;DHT22;11743;51.228;22.498;2023-08-17T00:34:39;21.40;1.00
23149;DHT22;11743;51.228;22.498;2023-08-17T00:35:01;21.40;1.00
23149;DHT22;11743;51.228;22.498;2023-08-17T00:35:22;21.40;1.00
23149;DHT22;11743;51.228;22.498;2023-08-17T00:35:44;21.40;1.00
23149;DHT22;11743;51.228;22.498;2023-08-17T00:36:07;21.40;1.00
23149;DHT22;11743;51.228;22.498;2023-08-17T00:36:31;21.40;1.00
23149;DHT22;11743;51.228;22.498;2023-08-17T00:36:52;21.40;1.00
23149;DHT22;11743;51.228;22.498;2023-08-17T00:37:14;21.40;1.00
23149;DHT22;11743;51.228;22.498;2023-08-17T00:37:36;21.40;1.00
23149;DHT22;11743;51.228;22.498;2023-08-17T00:37:59;21.40;1.00
23149;DHT22;11743;51.228;22.498;2023-08-17T00:38:21;21.40;1.00
23149;DHT22;11743;51.228;22.498;2023-08-17T00:38:43;21.40;1.00
23149;DHT22;11743;51.228;22.498;2023-08-17T00:39:04;21.30;1.00
23149;DHT22;11743;51.228;22.498;2023-08-17T00:39:26;21.40;1.00
23149;DHT22;11743;51.228;22.498;2023-08-17T00:39:48;21.30;1.00
23149;DHT22;11743;51.228;22.498;2023-08-17T00:40:10;21.30;1.00
23149;DHT22;11743;51.228;22.498;2023-08-17T00:40:32;21.30;1.00
23149;DHT22;11743;51.228;22.498;2023-08-17T00:40:54;21.30;1.00
23149;DHT22;11743;51.228;22.498;2023-08-17T00:41:17;21.30;1.00
23149;DHT22;11743;51.228;22.498;2023-08-17T00:41:38;21.30;1.00
23149;DHT22;11743;51.228;22.498;2023-08-17T00:42:00;21.30;1.00
23149;DHT22;11743;51.228;22.498;2023-08-17T00:42:22;21.30;1.00
23149;DHT22;11743;51.228;22.498;2023-08-17T00:42:44;21.30;1.00
23149;DHT22;11743;51.228;22.498;2023-08-17T00:43:06;21.30;1.00
23149;DHT22;11743;51.228;22.498;2023-08-17T00:43:28;21.30;1.00
23149;DHT22;11743;51.228;22.498;2023-08-17T00:43:50;21.30;1.00
23149;DHT22;11743;51.228;22.498;2023-08-17T00:44:12;21.30;1.00
23149;DHT22;11743;51.228;22.498;2023-08-17T00:44:34;21.30;1.00
23149;DHT22;11743;51.228;22.498;2023-08-17T00:44:55;21.30;1.00
23149;DHT22;11743;51.228;22.498;2023-08-17T00:45:18;21.30;1.00
23149;DHT22;11743;51.228;22.498;2023-08-17T00:45:41;21.30;1.00
23149;DHT22;11743;51.228;22.498;2023-08-17T00:46:03;21.30;1.00
23149;DHT22;11743;51.228;22.498;2023-08-17T00:46:25;21.30;1.00
23149;DHT22;11743;51.228;22.498;2023-08-17T00:46:48;21.30;1.00
23149;DHT22;11743;51.228;22.498;2023-08-17T00:47:10;21.30;1.00
23149;DHT22;11743;51.228;22.498;2023-08-17T00:47:32;21.30;1.00
23149;DHT22;11743;51.228;22.498;2023-08-17T00:47:57;21.30;1.00
23149;DHT22;11743;51.228;22.498;2023-08-17T00:48:20;21.30;1.00
23149;DHT22;11743;51.228;22.498;2023-08-17T00:48:42;21.30;1.00
23149;DHT22;11743;51.228;22.498;2023-08-17T00:49:05;21.30;1.00
23149;DHT22;11743;51.228;22.498;2023-08-17T00:49:27;21.30;1.00
23149;DHT22;11743;51.228;22.498;2023-08-17T00:49:49;21.30;1.00
23149;DHT22;11743;51.228;22.498;2023-08-17T00:50:12;21.30;1.00
23149;DHT22;11743;51.228;22.498;2023-08-17T00:50:35;21.30;1.00
23149;DHT22;11743;51.228;22.498;2023-08-17T00:50:58;21.30;1.00
23149;DHT22;11743;51.228;22.498;2023-08-17T00:51:22;21.30;1.00
23149;DHT22;11743;51.228;22.498;2023-08-17T00:51:45;21.30;1.00
23149;DHT22;11743;51.228;22.498;2023-08-17T00:52:06;21.30;1.00
23149;DHT22;11743;51.228;22.498;2023-08-17T00:52:29;21.30;1.00
23149;DHT22;11743;51.228;22.498;2023-08-17T00:52:53;21.30;1.00
23149;DHT22;11743;51.228;22.498;2023-08-17T00:53:15;21.30;1.00
23149;DHT22;11743;51.228;22.498;2023-08-17T00:53:38;21.30;1.00
23149;DHT22;11743;51.228;22.498;2023-08-17T00:54:01;21.30;1.00
23149;DHT22;11743;51.228;22.498;2023-08-17T00:54:27;21.30;1.00
23149;DHT22;11743;51.228;22.498;2023-08-17T00:54:51;21.30;1.00
23149;DHT22;11743;51.228;22.498;2023-08-17T00:55:13;21.30;1.00
23149;DHT22;11743;51.228;22.498;2023-08-17T00:55:35;21.30;1.00
23149;DHT22;11743;51.228;22.498;2023-08-17T00:55:57;21.30;1.00
23149;DHT22;11743;51.228;22.498;2023-08-17T00:56:19;21.30;1.00
23149;DHT22;11743;51.228;22.498;2023-08-17T00:56:41;21.30;1.00
23149;DHT22;11743;51.228;22.498;2023-08-17T00:57:03;21.30;1.00
23149;DHT22;11743;51.228;22.498;2023-08-17T00:57:29;21.30;1.00
23149;DHT22;11743;51.228;22.498;2023-08-17T00:57:53;21.30;1.00
23149;DHT22;11743;51.228;22.498;2023-08-17T00:58:15;21.30;1.00
23149;DHT22;11743;51.228;22.498;2023-08-17T00:58:37;21.30;1.00
23149;DHT22;11743;51.228;22.498;2023-08-17T00:58:59;21.30;1.00
23149;DHT22;11743;51.228;22.498;2023-08-17T00:59:22;21.30;1.00
23149;DHT22;11743;51.228;22.498;2023-08-17T00:59:45;21.30;1.00
23149;DHT22;11743;51.228;22.498;2023-08-17T01:00:24;21.30;1.00
23149;DHT22;11743;51.228;22.498;2023-08-17T01:00:50;21.30;1.00
23149;DHT22;11743;51.228;22.498;2023-08-17T01:01:12;21.30;1.00
23149;DHT22;11743;51.228;22.498;2023-08-17T01:01:34;21.30;1.00
23149;DHT22;11743;51.228;22.498;2023-08-17T01:01:56;21.30;1.00
23149;DHT22;11743;51.228;22.498;2023-08-17T01:02:18;21.30;99.90
23149;DHT22;11743;51.228;22.498;2023-08-17T01:02:41;21.30;99.90
23149;DHT22;11743;51.228;22.498;2023-08-17T01:03:04;21.30;99.90
23149;DHT22;11743;51.228;22.498;2023-08-17T01:03:28;21.30;99.90
23149;DHT22;11743;51.228;22.498;2023-08-17T01:03:50;21.30;99.90
23149;DHT22;11743;51.228;22.498;2023-08-17T01:04:12;21.30;99.90
23149;DHT22;11743;51.228;22.498;2023-08-17T01:04:35;21.30;99.90
23149;DHT22;11743;51.228;22.498;2023-08-17T01:04:59;21.30;99.90
23149;DHT22;11743;51.228;22.498;2023-08-17T01:05:21;21.30;99.90
23149;DHT22;11743;51.228;22.498;2023-08-17T01:05:44;21.30;99.90
23149;DHT22;11743;51.228;22.498;2023-08-17T01:06:06;21.30;99.90
23149;DHT22;11743;51.228;22.498;2023-08-17T01:06:28;21.30;99.90
23149;DHT22;11743;51.228;22.498;2023-08-17T01:06:50;21.30;99.90
23149;DHT22;11743;51.228;22.498;2023-08-17T01:07:12;21.30;99.90
23149;DHT22;11743;51.228;22.498;2023-08-17T01:07:34;21.30;99.90
23149;DHT22;11743;51.228;22.498;2023-08-17T01:07:55;21.20;99.90
23149;DHT22;11743;51.228;22.498;2023-08-17T01:08:17;21.20;99.90
23149;DHT22;11743;51.228;22.498;2023-08-17T01:08:40;21.30;99.90
23149;DHT22;11743;51.228;22.498;2023-08-17T01:09:03;21.30;99.90
23149;DHT22;11743;51.228;22.498;2023-08-17T01:09:25;21.30;99.90
23149;DHT22;11743;51.228;22.498;2023-08-17T01:09:47;21.30;99.90
23149;DHT22;11743;51.228;22.498;2023-08-17T01:10:09;21.30;99.90
23149;DHT22;11743;51.228;22.498;2023-08-17T01:11:17;21.30;99.90
23149;DHT22;11743;51.228;22.498;2023-08-17T01:11:49;21.30;99.90
23149;DHT22;11743;51.228;22.498;2023-08-17T01:13:02;21.30;99.90
23149;DHT22;11743;51.228;22.498;2023-08-17T01:13:11;21.30;99.90
23149;DHT22;11743;51.228;22.498;2023-08-17T01:13:43;21.10;99.90
23149;DHT22;11743;51.228;22.498;2023-08-17T01:15:14;21.30;99.90
23149;DHT22;11743;51.228;22.498;2023-08-17T01:15:45;21.30;99.90
23149;DHT22;11743;51.228;22.498;2023-08-17T01:16:14;21.30;99.90
23149;DHT22;11743;51.228;22.498;2023-08-17T01:16:56;21.20;99.90
23149;DHT22;11743;51.228;22.498;2023-08-17T01:17:24;21.30;99.90
23149;DHT22;11743;51.228;22.498;2023-08-17T01:18:00;21.30;99.90
23149;DHT22;11743;51.228;22.498;2023-08-17T01:18:33;21.20;99.90
23149;DHT22;11743;51.228;22.498;2023-08-17T01:18:57;21.20;99.90
23149;DHT22;11743;51.228;22.498;2023-08-17T01:19:26;21.20;99.90
23149;DHT22;11743;51.228;22.498;2023-08-17T01:19:49;21.20;99.90
23149;DHT22;11743;51.228;22.498;2023-08-17T01:20:13;21.20;99.90
23149;DHT22;11743;51.228;22.498;2023-08-17T01:20:37;21.20;99.90
23149;DHT22;11743;51.228;22.498;2023-08-17T01:21:02;21.20;99.90
23149;DHT22;11743;51.228;22.498;2023-08-17T01:21:35;21.20;99.90
23149;DHT22;11743;51.228;22.498;2023-08-17T01:22:11;21.20;99.90
23149;DHT22;11743;51.228;22.498;2023-08-17T01:22:35;21.20;99.90
23149;DHT22;11743;51.228;22.498;2023-08-17T01:23:05;21.20;99.90
23149;DHT22;11743;51.228;22.498;2023-08-17T01:23:27;21.20;99.90
23149;DHT22;11743;51.228;22.498;2023-08-17T01:23:49;21.20;99.90
23149;DHT22;11743;51.228;22.498;2023-08-17T01:24:14;21.20;99.90
23149;DHT22;11743;51.228;22.498;2023-08-17T01:24:36;21.20;99.90
23149;DHT22;11743;51.228;22.498;2023-08-17T01:24:58;21.20;99.90
23149;DHT22;11743;51.228;22.498;2023-08-17T01:25:20;21.20;99.90
23149;DHT22;11743;51.228;22.498;2023-08-17T01:25:42;21.20;99.90
23149;DHT22;11743;51.228;22.498;2023-08-17T01:26:03;21.20;99.90
23149;DHT22;11743;51.228;22.498;2023-08-17T01:26:25;21.20;1.00
23149;DHT22;11743;51.228;22.498;2023-08-17T01:26:47;21.20;1.00
23149;DHT22;11743;51.228;22.498;2023-08-17T01:27:09;21.20;1.00
23149;DHT22;11743;51.228;22.498;2023-08-17T01:27:39;21.20;1.00
23149;DHT22;11743;51.228;22.498;2023-08-17T01:28:02;21.20;1.00
23149;DHT22;11743;51.228;22.498;2023-08-17T01:28:24;21.20;1.00
23149;DHT22;11743;51.228;22.498;2023-08-17T01:28:47;21.20;1.00
23149;DHT22;11743;51.228;22.498;2023-08-17T01:29:09;21.20;1.00
23149;DHT22;11743;51.228;22.498;2023-08-17T01:29:31;21.20;1.00
23149;DHT22;11743;51.228;22.498;2023-08-17T01:29:53;21.10;99.90
23149;DHT22;11743;51.228;22.498;2023-08-17T01:30:17;21.20;99.90
23149;DHT22;11743;51.228;22.498;2023-08-17T01:31:17;21.20;1.00
23149;DHT22;11743;51.228;22.498;2023-08-17T01:31:35;21.20;1.00
23149;DHT22;11743;51.228;22.498;2023-08-17T01:32:16;21.20;99.90
23149;DHT22;11743;51.228;22.498;2023-08-17T01:33:03;21.20;99.90
23149;DHT22;11743;51.228;22.498;2023-08-17T01:33:43;21.20;99.90
23149;DHT22;11743;51.228;22.498;2023-08-17T01:34:09;21.20;99.90
23149;DHT22;11743;51.228;22.498;2023-08-17T01:34:37;21.20;99.90
23149;DHT22;11743;51.228;22.498;2023-08-17T01:35:13;21.10;99.90
23149;DHT22;11743;51.228;22.498;2023-08-17T01:35:39;21.20;99.90
23149;DHT22;11743;51.228;22.498;2023-08-17T01:36:13;21.20;99.90
23149;DHT22;11743;51.228;22.498;2023-08-17T01:36:46;21.20;99.90
23149;DHT22;11743;51.228;22.498;2023-08-17T01:37:10;21.20;99.90
23149;DHT22;11743;51.228;22.498;2023-08-17T01:37:34;21.20;99.90
23149;DHT22;11743;51.228;22.498;2023-08-17T01:38:01;21.20;99.90
23149;DHT22;11743;51.228;22.498;2023-08-17T01:38:25;21.10;99.90
23149;DHT22;11743;51.228;22.498;2023-08-17T01:38:51;21.20;99.90
23149;DHT22;11743;51.228;22.498;2023-08-17T01:39:16;21.10;99.90
23149;DHT22;11743;51.228;22.498;2023-08-17T01:39:42;21.20;99.90
23149;DHT22;11743;51.228;22.498;2023-08-17T01:40:05;21.20;99.90
23149;DHT22;11743;51.228;22.498;2023-08-17T01:40:28;21.10;99.90
23149;DHT22;11743;51.228;22.498;2023-08-17T01:40:54;21.10;99.90
23149;DHT22;11743;51.228;22.498;2023-08-17T01:41:17;21.20;99.90
23149;DHT22;11743;51.228;22.498;2023-08-17T01:41:42;21.20;99.90
23149;DHT22;11743;51.228;22.498;2023-08-17T01:42:05;21.20;99.90
23149;DHT22;11743;51.228;22.498;2023-08-17T01:42:28;21.10;99.90
23149;DHT22;11743;51.228;22.498;2023-08-17T01:42:50;21.20;99.90
23149;DHT22;11743;51.228;22.498;2023-08-17T01:43:13;21.20;99.90
23149;DHT22;11743;51.228;22.498;2023-08-17T01:43:37;21.20;99.90
23149;DHT22;11743;51.228;22.498;2023-08-17T01:43:59;21.20;99.90
23149;DHT22;11743;51.228;22.498;2023-08-17T01:44:22;21.20;99.90
23149;DHT22;11743;51.228;22.498;2023-08-17T01:44:44;21.20;99.90
23149;DHT22;11743;51.228;22.498;2023-08-17T01:45:06;21.20;99.90
23149;DHT22;11743;51.228;22.498;2023-08-17T01:45:28;21.20;99.90
23149;DHT22;11743;51.228;22.498;2023-08-17T01:45:50;21.20;99.90
23149;DHT22;11743;51.228;22.498;2023-08-17T01:46:16;21.20;99.90
23149;DHT22;11743;51.228;22.498;2023-08-17T01:46:39;21.20;99.90
23149;DHT22;11743;51.228;22.498;2023-08-17T01:47:01;21.20;99.90
23149;DHT22;11743;51.228;22.498;2023-08-17T01:47:23;21.20;99.90
23149;DHT22;11743;51.228;22.498;2023-08-17T01:47:45;21.20;99.90
23149;DHT22;11743;51.228;22.498;2023-08-17T01:48:07;21.20;99.90
23149;DHT22;11743;51.228;22.498;2023-08-17T01:48:29;21.20;99.90
23149;DHT22;11743;51.228;22.498;2023-08-17T01:48:50;21.20;99.90
23149;DHT22;11743;51.228;22.498;2023-08-17T01:49:12;21.20;99.90
23149;DHT22;11743;51.228;22.498;2023-08-17T01:49:34;21.20;99.90
23149;DHT22;11743;51.228;22.498;2023-08-17T01:49:56;21.20;99.90
23149;DHT22;11743;51.228;22.498;2023-08-17T01:50:21;21.20;99.90
23149;DHT22;11743;51.228;22.498;2023-08-17T01:50:43;21.20;99.90
23149;DHT22;11743;51.228;22.498;2023-08-17T01:51:04;21.20;99.90
23149;DHT22;11743;51.228;22.498;2023-08-17T01:51:27;21.20;99.90
23149;DHT22;11743;51.228;22.498;2023-08-17T01:51:49;21.20;99.90
23149;DHT22;11743;51.228;22.498;2023-08-17T01:52:11;21.20;99.90
23149;DHT22;11743;51.228;22.498;2023-08-17T01:52:33;21.20;84.60
23149;DHT22;11743;51.228;22.498;2023-08-17T01:52:55;21.20;77.00
23149;DHT22;11743;51.228;22.498;2023-08-17T01:53:16;21.10;46.60
23149;DHT22;11743;51.228;22.498;2023-08-17T01:53:38;21.20;36.30
23149;DHT22;11743;51.228;22.498;2023-08-17T01:54:00;21.10;31.30
23149;DHT22;11743;51.228;22.498;2023-08-17T01:54:22;21.10;2.30
23149;DHT22;11743;51.228;22.498;2023-08-17T01:54:44;21.10;7.70
23149;DHT22;11743;51.228;22.498;2023-08-17T01:55:06;21.10;1.00
23149;DHT22;11743;51.228;22.498;2023-08-17T01:55:28;21.10;16.20
23149;DHT22;11743;51.228;22.498;2023-08-17T01:55:50;21.10;99.90
23149;DHT22;11743;51.228;22.498;2023-08-17T01:56:15;21.10;99.90
23149;DHT22;11743;51.228;22.498;2023-08-17T01:56:36;21.10;99.90
23149;DHT22;11743;51.228;22.498;2023-08-17T01:56:58;21.10;99.90
23149;DHT22;11743;51.228;22.498;2023-08-17T01:57:20;20.90;99.90
23149;DHT22;11743;51.228;22.498;2023-08-17T01:57:42;21.10;99.90
23149;DHT22;11743;51.228;22.498;2023-08-17T01:58:03;21.10;99.90
23149;DHT22;11743;51.228;22.498;2023-08-17T01:58:25;21.00;99.90
23149;DHT22;11743;51.228;22.498;2023-08-17T01:58:47;21.10;99.90
23149;DHT22;11743;51.228;22.498;2023-08-17T01:59:09;21.00;99.90
23149;DHT22;11743;51.228;22.498;2023-08-17T01:59:31;21.00;99.90
23149;DHT22;11743;51.228;22.498;2023-08-17T01:59:52;21.00;99.90
23149;DHT22;11743;51.228;22.498;2023-08-17T02:00:15;21.00;99.90
23149;DHT22;11743;51.228;22.498;2023-08-17T02:00:36;21.00;99.90
23149;DHT22;11743;51.228;22.498;2023-08-17T02:00:58;21.00;99.90
23149;DHT22;11743;51.228;22.498;2023-08-17T02:01:20;21.00;99.90
23149;DHT22;11743;51.228;22.498;2023-08-17T02:01:42;21.00;99.90
23149;DHT22;11743;51.228;22.498;2023-08-17T02:02:04;21.00;99.90
23149;DHT22;11743;51.228;22.498;2023-08-17T02:02:26;21.80;99.90
23149;DHT22;11743;51.228;22.498;2023-08-17T02:02:47;21.00;99.90
23149;DHT22;11743;51.228;22.498;2023-08-17T02:03:09;21.00;99.90
23149;DHT22;11743;51.228;22.498;2023-08-17T02:03:31;21.00;99.90
23149;DHT22;11743;51.228;22.498;2023-08-17T02:03:53;20.90;99.90
23149;DHT22;11743;51.228;22.498;2023-08-17T02:04:15;20.90;99.90
23149;DHT22;11743;51.228;22.498;2023-08-17T02:04:37;20.90;99.90
23149;DHT22;11743;51.228;22.498;2023-08-17T02:04:59;20.90;99.90
23149;DHT22;11743;51.228;22.498;2023-08-17T02:05:21;20.90;99.90
23149;DHT22;11743;51.228;22.498;2023-08-17T02:05:46;20.90;99.90
23149;DHT22;11743;51.228;22.498;2023-08-17T02:06:08;20.90;1.00
23149;DHT22;11743;51.228;22.498;2023-08-17T02:06:30;20.90;1.00
23149;DHT22;11743;51.228;22.498;2023-08-17T02:06:52;20.90;1.00
23149;DHT22;11743;51.228;22.498;2023-08-17T02:07:13;20.80;1.00
23149;DHT22;11743;51.228;22.498;2023-08-17T02:07:35;20.90;1.00
23149;DHT22;11743;51.228;22.498;2023-08-17T02:07:57;20.90;1.00
23149;DHT22;11743;51.228;22.498;2023-08-17T02:08:19;20.80;1.00
23149;DHT22;11743;51.228;22.498;2023-08-17T02:08:41;20.80;1.00
23149;DHT22;11743;51.228;22.498;2023-08-17T02:09:04;20.80;1.00
23149;DHT22;11743;51.228;22.498;2023-08-17T02:09:26;20.80;1.00
23149;DHT22;11743;51.228;22.498;2023-08-17T02:09:47;20.80;1.00
23149;DHT22;11743;51.228;22.498;2023-08-17T02:10:09;20.80;1.00
23149;DHT22;11743;51.228;22.498;2023-08-17T02:10:31;20.80;1.00
23149;DHT22;11743;51.228;22.498;2023-08-17T02:10:53;20.80;1.00
23149;DHT22;11743;51.228;22.498;2023-08-17T02:11:15;20.80;1.00
23149;DHT22;11743;51.228;22.498;2023-08-17T02:11:37;20.80;1.00
23149;DHT22;11743;51.228;22.498;2023-08-17T02:11:58;20.80;1.00
23149;DHT22;11743;51.228;22.498;2023-08-17T02:12:20;20.80;1.00
23149;DHT22;11743;51.228;22.498;2023-08-17T02:12:42;20.80;1.00
23149;DHT22;11743;51.228;22.498;2023-08-17T02:13:04;20.80;1.00
23149;DHT22;11743;51.228;22.498;2023-08-17T02:13:38;20.70;1.00
23149;DHT22;11743;51.228;22.498;2023-08-17T02:14:00;20.80;1.00
23149;DHT22;11743;51.228;22.498;2023-08-17T02:14:22;20.70;1.00
23149;DHT22;11743;51.228;22.498;2023-08-17T02:14:44;20.70;1.00
23149;DHT22;11743;51.228;22.498;2023-08-17T02:15:06;20.70;1.00
23149;DHT22;11743;51.228;22.498;2023-08-17T02:15:28;20.70;1.00
23149;DHT22;11743;51.228;22.498;2023-08-17T02:15:50;20.70;1.00
23149;DHT22;11743;51.228;22.498;2023-08-17T02:16:12;20.70;1.00
23149;DHT22;11743;51.228;22.498;2023-08-17T02:16:34;20.70;1.00
23149;DHT22;11743;51.228;22.498;2023-08-17T02:16:56;20.70;1.00
23149;DHT22;11743;51.228;22.498;2023-08-17T02:17:18;20.70;1.00
23149;DHT22;11743;51.228;22.498;2023-08-17T02:17:40;20.70;1.00
23149;DHT22;11743;51.228;22.498;2023-08-17T02:18:02;20.70;1.00
23149;DHT22;11743;51.228;22.498;2023-08-17T02:18:24;20.70;1.00
23149;DHT22;11743;51.228;22.498;2023-08-17T02:18:46;20.60;1.00
23149;DHT22;11743;51.228;22.498;2023-08-17T02:19:08;20.70;1.00
23149;DHT22;11743;51.228;22.498;2023-08-17T02:19:29;20.60;1.00
23149;DHT22;11743;51.228;22.498;2023-08-17T02:19:51;20.60;1.00
23149;DHT22;11743;51.228;22.498;2023-08-17T02:20:13;20.60;1.00
23149;DHT22;11743;51.228;22.498;2023-08-17T02:20:35;20.60;1.00
23149;DHT22;11743;51.228;22.498;2023-08-17T02:20:57;20.60;1.00
23149;DHT22;11743;51.228;22.498;2023-08-17T02:21:19;20.60;1.00
23149;DHT22;11743;51.228;22.498;2023-08-17T02:21:41;20.60;1.00
23149;DHT22;11743;51.228;22.498;2023-08-17T02:22:03;20.60;1.00
23149;DHT22;11743;51.228;22.498;2023-08-17T02:22:25;20.60;1.00
23149;DHT22;11743;51.228;22.498;2023-08-17T02:22:47;20.60;1.00
23149;DHT22;11743;51.228;22.498;2023-08-17T02:23:08;20.60;1.00
23149;DHT22;11743;51.228;22.498;2023-08-17T02:23:30;20.60;1.00
23149;DHT22;11743;51.228;22.498;2023-08-17T02:23:52;20.60;1.00
23149;DHT22;11743;51.228;22.498;2023-08-17T02:24:14;20.60;1.00
23149;DHT22;11743;51.228;22.498;2023-08-17T02:24:36;20.60;1.00
23149;DHT22;11743;51.228;22.498;2023-08-17T02:24:58;20.60;1.00
23149;DHT22;11743;51.228;22.498;2023-08-17T02:25:20;20.60;1.00
23149;DHT22;11743;51.228;22.498;2023-08-17T02:25:42;20.60;1.00
23149;DHT22;11743;51.228;22.498;2023-08-17T02:26:03;20.60;1.00
23149;DHT22;11743;51.228;22.498;2023-08-17T02:26:25;20.60;1.00
23149;DHT22;11743;51.228;22.498;2023-08-17T02:26:47;20.60;1.00
23149;DHT22;11743;51.228;22.498;2023-08-17T02:27:09;20.60;1.00
23149;DHT22;11743;51.228;22.498;2023-08-17T02:27:31;20.70;1.00